KECG Airport (Elizabeth City Cg Air Station/Rgnl) Information

FAA: ECG - ICAO: KECG

KECG Airport Location

State North Carolina
County Pasquotank
City Elizabeth City
KECG Airport is 3 miles southeast of Elizabeth City, NC.
Latitude 36-15-38.1000N
Longitude 076-10-28.4000W
Elevation 10ft

KECG Airport METARs

METAR KECG 262354Z 29010KT 10SM CLR 08/M04 A2991 RMK AO2 SLP128 T00781044 10156 20067 51028
Altimeter 29.91"
Temperature 7.8°C (46.0°F)
Wind 290° at 10KT
Clouds Skies are clear.
Visibility 10.0mi
Time observed: 2021-11-26T23:54:00Z

KECG Airport Details

Status Operational
Activation N/A
Ownership Public
Usage Public
Chart WASHINGTON
ATC on-site Yes
Beacon schedule sunset-sunrise
Beacon color clear green

KECG Airport Contacts

Owner USCG BASE ELIZABETH CITY
Owner address USCG BASE-ELIZABETH CITY OPS MNGR, 1664 WEEKSVILLE RD, ELIZABETH CITY, NC 27909
Owner phone 252-334-5387
Manager FIRE CHIEF LAUGHMILLER
Manager address 2169 OCEAN PEARL RD., COROLLA, NC 27927
Manager phone 251-267-1949

KECG Airport (Elizabeth City Cg Air Station/Rgnl) Radio Frequencies

KECG (Airport) Radio Frequencies

UNICOM 122.95
Common traffic advisory frequency (CTAF) 120.5